sensor_id;sensor_type;location;lat;lon;timestamp;P1;durP1;ratioP1;P2;durP2;ratioP2
66979;SDS011;54048;51.468;-2.572;2022-08-24T00:00:15;2.95;;;1.40;;
66979;SDS011;54048;51.468;-2.572;2022-08-24T00:02:45;1.40;;;1.20;;
66979;SDS011;54048;51.468;-2.572;2022-08-24T00:05:10;2.75;;;1.55;;
66979;SDS011;54048;51.468;-2.572;2022-08-24T00:07:36;3.47;;;1.63;;
66979;SDS011;54048;51.468;-2.572;2022-08-24T00:10:02;1.95;;;1.20;;
66979;SDS011;54048;51.468;-2.572;2022-08-24T00:12:30;1.83;;;1.20;;
66979;SDS011;54048;51.468;-2.572;2022-08-24T00:14:56;1.73;;;1.30;;
66979;SDS011;54048;51.468;-2.572;2022-08-24T00:17:22;2.05;;;1.90;;
66979;SDS011;54048;51.468;-2.572;2022-08-24T00:19:47;1.35;;;1.20;;
66979;SDS011;54048;51.468;-2.572;2022-08-24T00:22:12;4.68;;;1.30;;
66979;SDS011;54048;51.468;-2.572;2022-08-24T00:24:38;1.13;;;1.00;;
66979;SDS011;54048;51.468;-2.572;2022-08-24T00:27:05;2.88;;;1.33;;
66979;SDS011;54048;51.468;-2.572;2022-08-24T00:29:31;1.30;;;1.20;;
66979;SDS011;54048;51.468;-2.572;2022-08-24T00:31:57;4.95;;;1.02;;
66979;SDS011;54048;51.468;-2.572;2022-08-24T00:34:22;1.33;;;1.20;;
66979;SDS011;54048;51.468;-2.572;2022-08-24T00:36:49;1.40;;;1.30;;
66979;SDS011;54048;51.468;-2.572;2022-08-24T00:39:14;1.52;;;1.20;;
66979;SDS011;54048;51.468;-2.572;2022-08-24T00:41:41;1.73;;;1.10;;
66979;SDS011;54048;51.468;-2.572;2022-08-24T00:44:08;1.13;;;1.02;;
66979;SDS011;54048;51.468;-2.572;2022-08-24T00:49:10;1.58;;;1.33;;
66979;SDS011;54048;51.468;-2.572;2022-08-24T00:51:55;3.63;;;1.30;;
66979;SDS011;54048;51.468;-2.572;2022-08-24T00:54:32;1.92;;;1.20;;
66979;SDS011;54048;51.468;-2.572;2022-08-24T00:57:03;2.08;;;1.27;;
66979;SDS011;54048;51.468;-2.572;2022-08-24T00:59:32;2.33;;;1.30;;
66979;SDS011;54048;51.468;-2.572;2022-08-24T01:02:01;3.85;;;1.02;;
66979;SDS011;54048;51.468;-2.572;2022-08-24T01:04:31;1.38;;;1.27;;
66979;SDS011;54048;51.468;-2.572;2022-08-24T01:07:02;1.45;;;1.23;;
66979;SDS011;54048;51.468;-2.572;2022-08-24T01:09:28;2.10;;;1.50;;
66979;SDS011;54048;51.468;-2.572;2022-08-24T01:11:53;1.13;;;1.02;;
66979;SDS011;54048;51.468;-2.572;2022-08-24T01:14:19;4.80;;;1.25;;
66979;SDS011;54048;51.468;-2.572;2022-08-24T01:16:45;1.52;;;1.33;;
66979;SDS011;54048;51.468;-2.572;2022-08-24T01:19:32;1.83;;;1.30;;
66979;SDS011;54048;51.468;-2.572;2022-08-24T01:24:44;3.10;;;1.48;;
66979;SDS011;54048;51.468;-2.572;2022-08-24T01:27:10;2.40;;;1.15;;
66979;SDS011;54048;51.468;-2.572;2022-08-24T01:29:36;1.80;;;1.38;;
66979;SDS011;54048;51.468;-2.572;2022-08-24T01:32:04;2.42;;;1.20;;
66979;SDS011;54048;51.468;-2.572;2022-08-24T01:34:29;2.35;;;1.38;;
66979;SDS011;54048;51.468;-2.572;2022-08-24T01:36:55;2.03;;;1.25;;
66979;SDS011;54048;51.468;-2.572;2022-08-24T01:39:31;1.50;;;1.27;;
66979;SDS011;54048;51.468;-2.572;2022-08-24T01:41:59;1.83;;;1.60;;
66979;SDS011;54048;51.468;-2.572;2022-08-24T01:44:27;4.00;;;1.48;;
66979;SDS011;54048;51.468;-2.572;2022-08-24T01:46:54;1.50;;;1.40;;
66979;SDS011;54048;51.468;-2.572;2022-08-24T01:49:22;1.90;;;1.55;;
66979;SDS011;54048;51.468;-2.572;2022-08-24T01:51:49;2.13;;;1.40;;
66979;SDS011;54048;51.468;-2.572;2022-08-24T01:54:14;3.75;;;1.42;;
66979;SDS011;54048;51.468;-2.572;2022-08-24T01:56:40;3.20;;;1.70;;
66979;SDS011;54048;51.468;-2.572;2022-08-24T01:59:06;1.45;;;1.30;;
66979;SDS011;54048;51.468;-2.572;2022-08-24T02:01:35;1.38;;;1.27;;
66979;SDS011;54048;51.468;-2.572;2022-08-24T02:04:02;1.80;;;1.30;;
66979;SDS011;54048;51.468;-2.572;2022-08-24T02:06:29;1.50;;;1.10;;
66979;SDS011;54048;51.468;-2.572;2022-08-24T02:08:54;2.78;;;1.30;;
66979;SDS011;54048;51.468;-2.572;2022-08-24T02:11:20;1.50;;;1.40;;
66979;SDS011;54048;51.468;-2.572;2022-08-24T02:13:46;1.63;;;1.30;;
66979;SDS011;54048;51.468;-2.572;2022-08-24T02:16:11;2.08;;;1.50;;
66979;SDS011;54048;51.468;-2.572;2022-08-24T02:18:38;2.17;;;1.50;;
66979;SDS011;54048;51.468;-2.572;2022-08-24T02:21:04;1.92;;;1.55;;
66979;SDS011;54048;51.468;-2.572;2022-08-24T02:23:32;2.47;;;1.40;;
66979;SDS011;54048;51.468;-2.572;2022-08-24T02:25:58;2.25;;;1.60;;
66979;SDS011;54048;51.468;-2.572;2022-08-24T02:28:25;2.22;;;1.75;;
66979;SDS011;54048;51.468;-2.572;2022-08-24T02:30:50;3.42;;;1.83;;
66979;SDS011;54048;51.468;-2.572;2022-08-24T02:33:16;2.97;;;1.50;;
66979;SDS011;54048;51.468;-2.572;2022-08-24T02:35:42;3.72;;;1.50;;
66979;SDS011;54048;51.468;-2.572;2022-08-24T02:38:07;1.92;;;1.50;;
66979;SDS011;54048;51.468;-2.572;2022-08-24T02:40:34;2.35;;;1.30;;
66979;SDS011;54048;51.468;-2.572;2022-08-24T02:42:59;1.70;;;1.40;;
66979;SDS011;54048;51.468;-2.572;2022-08-24T02:45:25;1.55;;;1.33;;
66979;SDS011;54048;51.468;-2.572;2022-08-24T02:47:50;2.97;;;1.60;;
66979;SDS011;54048;51.468;-2.572;2022-08-24T02:50:17;3.28;;;1.55;;
66979;SDS011;54048;51.468;-2.572;2022-08-24T02:52:42;4.63;;;1.40;;
66979;SDS011;54048;51.468;-2.572;2022-08-24T02:55:09;2.95;;;1.35;;
66979;SDS011;54048;51.468;-2.572;2022-08-24T02:57:37;1.48;;;1.38;;
66979;SDS011;54048;51.468;-2.572;2022-08-24T03:00:04;1.75;;;1.30;;
66979;SDS011;54048;51.468;-2.572;2022-08-24T03:02:32;1.17;;;1.05;;
66979;SDS011;54048;51.468;-2.572;2022-08-24T03:04:57;1.40;;;1.30;;
66979;SDS011;54048;51.468;-2.572;2022-08-24T03:07:22;1.73;;;1.23;;
66979;SDS011;54048;51.468;-2.572;2022-08-24T03:09:48;2.97;;;1.40;;
66979;SDS011;54048;51.468;-2.572;2022-08-24T03:12:13;2.15;;;1.23;;
66979;SDS011;54048;51.468;-2.572;2022-08-24T03:14:39;1.98;;;1.20;;
66979;SDS011;54048;51.468;-2.572;2022-08-24T03:17:05;1.73;;;1.00;;
66979;SDS011;54048;51.468;-2.572;2022-08-24T03:19:30;1.38;;;1.20;;
66979;SDS011;54048;51.468;-2.572;2022-08-24T03:21:56;1.10;;;1.00;;
66979;SDS011;54048;51.468;-2.572;2022-08-24T03:24:22;1.42;;;1.10;;
66979;SDS011;54048;51.468;-2.572;2022-08-24T03:26:47;3.22;;;1.30;;
66979;SDS011;54048;51.468;-2.572;2022-08-24T03:29:13;3.35;;;1.20;;
66979;SDS011;54048;51.468;-2.572;2022-08-24T03:31:39;1.83;;;1.50;;
66979;SDS011;54048;51.468;-2.572;2022-08-24T03:34:04;1.60;;;1.27;;
66979;SDS011;54048;51.468;-2.572;2022-08-24T03:36:29;2.63;;;1.30;;
66979;SDS011;54048;51.468;-2.572;2022-08-24T03:38:55;2.97;;;1.17;;
66979;SDS011;54048;51.468;-2.572;2022-08-24T03:41:20;1.65;;;1.40;;
66979;SDS011;54048;51.468;-2.572;2022-08-24T03:43:46;1.80;;;1.40;;
66979;SDS011;54048;51.468;-2.572;2022-08-24T03:46:24;2.30;;;1.17;;
66979;SDS011;54048;51.468;-2.572;2022-08-24T03:48:53;1.52;;;1.27;;
66979;SDS011;54048;51.468;-2.572;2022-08-24T03:51:20;4.18;;;1.40;;
66979;SDS011;54048;51.468;-2.572;2022-08-24T03:53:47;2.75;;;1.55;;
66979;SDS011;54048;51.468;-2.572;2022-08-24T03:56:13;2.55;;;1.10;;
66979;SDS011;54048;51.468;-2.572;2022-08-24T03:58:38;1.63;;;1.30;;
66979;SDS011;54048;51.468;-2.572;2022-08-24T04:01:06;2.05;;;1.40;;
66979;SDS011;54048;51.468;-2.572;2022-08-24T04:03:39;1.52;;;1.20;;
66979;SDS011;54048;51.468;-2.572;2022-08-24T04:06:05;2.20;;;1.42;;
66979;SDS011;54048;51.468;-2.572;2022-08-24T04:08:32;2.75;;;1.60;;
66979;SDS011;54048;51.468;-2.572;2022-08-24T04:10:58;4.07;;;1.45;;
66979;SDS011;54048;51.468;-2.572;2022-08-24T04:13:24;1.85;;;1.40;;
66979;SDS011;54048;51.468;-2.572;2022-08-24T04:15:50;2.33;;;1.60;;
66979;SDS011;54048;51.468;-2.572;2022-08-24T04:18:17;4.22;;;1.48;;
66979;SDS011;54048;51.468;-2.572;2022-08-24T04:20:43;1.85;;;1.48;;
66979;SDS011;54048;51.468;-2.572;2022-08-24T04:23:09;1.60;;;1.40;;
66979;SDS011;54048;51.468;-2.572;2022-08-24T04:25:39;1.90;;;1.38;;
66979;SDS011;54048;51.468;-2.572;2022-08-24T04:28:10;1.63;;;1.40;;
66979;SDS011;54048;51.468;-2.572;2022-08-24T04:30:43;2.92;;;1.60;;
66979;SDS011;54048;51.468;-2.572;2022-08-24T04:33:10;6.50;;;1.63;;
66979;SDS011;54048;51.468;-2.572;2022-08-24T04:35:40;1.73;;;1.48;;
66979;SDS011;54048;51.468;-2.572;2022-08-24T04:38:07;2.97;;;1.30;;
66979;SDS011;54048;51.468;-2.572;2022-08-24T04:40:33;1.52;;;1.40;;
66979;SDS011;54048;51.468;-2.572;2022-08-24T04:42:58;2.35;;;1.70;;
66979;SDS011;54048;51.468;-2.572;2022-08-24T04:45:25;2.50;;;1.75;;
66979;SDS011;54048;51.468;-2.572;2022-08-24T04:47:51;2.78;;;1.67;;
66979;SDS011;54048;51.468;-2.572;2022-08-24T04:50:16;2.75;;;1.63;;
66979;SDS011;54048;51.468;-2.572;2022-08-24T04:52:42;3.33;;;1.80;;
66979;SDS011;54048;51.468;-2.572;2022-08-24T04:55:07;3.00;;;1.70;;
66979;SDS011;54048;51.468;-2.572;2022-08-24T04:57:33;2.60;;;1.75;;
66979;SDS011;54048;51.468;-2.572;2022-08-24T04:59:59;4.00;;;1.85;;
66979;SDS011;54048;51.468;-2.572;2022-08-24T05:02:24;6.93;;;1.98;;
66979;SDS011;54048;51.468;-2.572;2022-08-24T05:04:50;3.70;;;1.83;;
66979;SDS011;54048;51.468;-2.572;2022-08-24T05:07:16;3.58;;;1.70;;
66979;SDS011;54048;51.468;-2.572;2022-08-24T05:09:43;2.97;;;2.00;;
66979;SDS011;54048;51.468;-2.572;2022-08-24T05:12:09;3.05;;;1.85;;
66979;SDS011;54048;51.468;-2.572;2022-08-24T05:14:35;2.38;;;1.52;;
66979;SDS011;54048;51.468;-2.572;2022-08-24T05:17:01;4.90;;;1.92;;
66979;SDS011;54048;51.468;-2.572;2022-08-24T05:19:26;4.63;;;1.83;;
66979;SDS011;54048;51.468;-2.572;2022-08-24T05:21:52;2.60;;;1.90;;
66979;SDS011;54048;51.468;-2.572;2022-08-24T05:24:17;4.28;;;1.48;;
66979;SDS011;54048;51.468;-2.572;2022-08-24T05:26:43;2.65;;;1.80;;
66979;SDS011;54048;51.468;-2.572;2022-08-24T05:29:09;2.38;;;1.70;;
66979;SDS011;54048;51.468;-2.572;2022-08-24T05:31:35;5.68;;;1.80;;
66979;SDS011;54048;51.468;-2.572;2022-08-24T05:34:01;3.25;;;1.58;;
66979;SDS011;54048;51.468;-2.572;2022-08-24T05:36:28;2.33;;;1.60;;
66979;SDS011;54048;51.468;-2.572;2022-08-24T05:38:55;4.60;;;1.60;;
66979;SDS011;54048;51.468;-2.572;2022-08-24T05:41:22;2.45;;;1.73;;
66979;SDS011;54048;51.468;-2.572;2022-08-24T05:43:48;2.63;;;1.40;;
66979;SDS011;54048;51.468;-2.572;2022-08-24T05:46:14;2.10;;;1.60;;
66979;SDS011;54048;51.468;-2.572;2022-08-24T05:48:40;2.58;;;1.60;;
66979;SDS011;54048;51.468;-2.572;2022-08-24T05:51:06;1.80;;;1.58;;
66979;SDS011;54048;51.468;-2.572;2022-08-24T05:53:32;3.75;;;2.17;;
66979;SDS011;54048;51.468;-2.572;2022-08-24T05:55:57;2.63;;;1.50;;
66979;SDS011;54048;51.468;-2.572;2022-08-24T05:58:26;2.83;;;1.40;;
66979;SDS011;54048;51.468;-2.572;2022-08-24T06:00:51;3.55;;;1.77;;
66979;SDS011;54048;51.468;-2.572;2022-08-24T06:03:17;0.80;;;0.80;;
66979;SDS011;54048;51.468;-2.572;2022-08-24T06:05:43;2.53;;;1.38;;
66979;SDS011;54048;51.468;-2.572;2022-08-24T06:08:09;1.73;;;1.10;;
66979;SDS011;54048;51.468;-2.572;2022-08-24T06:10:44;2.83;;;1.10;;
66979;SDS011;54048;51.468;-2.572;2022-08-24T06:13:13;1.63;;;1.00;;
66979;SDS011;54048;51.468;-2.572;2022-08-24T06:15:40;2.50;;;1.30;;
66979;SDS011;54048;51.468;-2.572;2022-08-24T06:18:06;3.50;;;1.27;;
66979;SDS011;54048;51.468;-2.572;2022-08-24T06:20:32;1.60;;;1.50;;
66979;SDS011;54048;51.468;-2.572;2022-08-24T06:23:02;1.70;;;1.10;;
66979;SDS011;54048;51.468;-2.572;2022-08-24T06:25:28;2.65;;;1.10;;
66979;SDS011;54048;51.468;-2.572;2022-08-24T06:28:12;2.33;;;1.20;;
66979;SDS011;54048;51.468;-2.572;2022-08-24T06:30:37;3.83;;;1.30;;
66979;SDS011;54048;51.468;-2.572;2022-08-24T06:33:03;2.15;;;1.33;;
66979;SDS011;54048;51.468;-2.572;2022-08-24T06:35:29;1.40;;;1.00;;
66979;SDS011;54048;51.468;-2.572;2022-08-24T06:37:54;1.90;;;1.10;;
66979;SDS011;54048;51.468;-2.572;2022-08-24T06:40:20;1.45;;;1.30;;
66979;SDS011;54048;51.468;-2.572;2022-08-24T06:42:46;1.95;;;1.25;;
66979;SDS011;54048;51.468;-2.572;2022-08-24T06:45:12;2.85;;;1.10;;
66979;SDS011;54048;51.468;-2.572;2022-08-24T06:47:38;2.30;;;1.10;;
66979;SDS011;54048;51.468;-2.572;2022-08-24T06:50:04;4.72;;;1.67;;
66979;SDS011;54048;51.468;-2.572;2022-08-24T06:52:30;1.33;;;1.10;;
66979;SDS011;54048;51.468;-2.572;2022-08-24T06:54:56;2.47;;;1.33;;
66979;SDS011;54048;51.468;-2.572;2022-08-24T06:57:21;3.95;;;1.20;;
66979;SDS011;54048;51.468;-2.572;2022-08-24T06:59:47;2.65;;;1.40;;
66979;SDS011;54048;51.468;-2.572;2022-08-24T07:02:12;3.50;;;1.15;;
66979;SDS011;54048;51.468;-2.572;2022-08-24T07:04:40;1.90;;;1.40;;
66979;SDS011;54048;51.468;-2.572;2022-08-24T07:07:06;1.85;;;1.20;;
66979;SDS011;54048;51.468;-2.572;2022-08-24T07:09:32;2.85;;;1.67;;
66979;SDS011;54048;51.468;-2.572;2022-08-24T07:11:58;5.50;;;1.58;;
66979;SDS011;54048;51.468;-2.572;2022-08-24T07:14:24;7.20;;;1.70;;
66979;SDS011;54048;51.468;-2.572;2022-08-24T07:16:50;3.80;;;1.42;;
66979;SDS011;54048;51.468;-2.572;2022-08-24T07:19:15;2.25;;;1.67;;
66979;SDS011;54048;51.468;-2.572;2022-08-24T07:21:40;4.15;;;1.60;;
66979;SDS011;54048;51.468;-2.572;2022-08-24T07:24:06;1.92;;;1.20;;
66979;SDS011;54048;51.468;-2.572;2022-08-24T07:26:32;5.38;;;1.52;;
66979;SDS011;54048;51.468;-2.572;2022-08-24T07:29:00;3.08;;;1.23;;
66979;SDS011;54048;51.468;-2.572;2022-08-24T07:31:33;1.83;;;1.10;;
66979;SDS011;54048;51.468;-2.572;2022-08-24T07:34:00;1.63;;;1.25;;
66979;SDS011;54048;51.468;-2.572;2022-08-24T07:36:28;4.07;;;2.92;;
66979;SDS011;54048;51.468;-2.572;2022-08-24T07:38:54;3.17;;;1.23;;
66979;SDS011;54048;51.468;-2.572;2022-08-24T07:41:20;2.78;;;1.20;;
66979;SDS011;54048;51.468;-2.572;2022-08-24T07:43:46;3.55;;;1.65;;
66979;SDS011;54048;51.468;-2.572;2022-08-24T07:46:12;2.00;;;0.98;;
66979;SDS011;54048;51.468;-2.572;2022-08-24T07:48:38;3.08;;;1.20;;
66979;SDS011;54048;51.468;-2.572;2022-08-24T07:51:11;2.47;;;1.20;;
66979;SDS011;54048;51.468;-2.572;2022-08-24T07:53:37;1.98;;;1.20;;
66979;SDS011;54048;51.468;-2.572;2022-08-24T07:56:03;3.00;;;1.40;;
66979;SDS011;54048;51.468;-2.572;2022-08-24T07:58:29;1.80;;;0.90;;
66979;SDS011;54048;51.468;-2.572;2022-08-24T08:00:55;1.27;;;1.10;;
66979;SDS011;54048;51.468;-2.572;2022-08-24T08:03:21;1.52;;;0.70;;
66979;SDS011;54048;51.468;-2.572;2022-08-24T08:05:53;3.33;;;1.50;;
66979;SDS011;54048;51.468;-2.572;2022-08-24T08:08:21;1.75;;;1.02;;
66979;SDS011;54048;51.468;-2.572;2022-08-24T08:10:47;2.08;;;1.20;;
66979;SDS011;54048;51.468;-2.572;2022-08-24T08:13:12;5.40;;;1.95;;
66979;SDS011;54048;51.468;-2.572;2022-08-24T08:15:38;1.58;;;0.98;;
66979;SDS011;54048;51.468;-2.572;2022-08-24T08:18:03;6.50;;;1.73;;
66979;SDS011;54048;51.468;-2.572;2022-08-24T08:20:28;3.05;;;1.45;;
66979;SDS011;54048;51.468;-2.572;2022-08-24T08:22:54;2.95;;;1.27;;
66979;SDS011;54048;51.468;-2.572;2022-08-24T08:25:38;3.20;;;1.42;;
66979;SDS011;54048;51.468;-2.572;2022-08-24T08:28:04;4.03;;;1.60;;
66979;SDS011;54048;51.468;-2.572;2022-08-24T08:30:30;1.67;;;1.10;;
66979;SDS011;54048;51.468;-2.572;2022-08-24T08:32:56;3.42;;;0.98;;
66979;SDS011;54048;51.468;-2.572;2022-08-24T08:35:22;2.55;;;1.05;;
66979;SDS011;54048;51.468;-2.572;2022-08-24T08:37:47;1.95;;;1.30;;
66979;SDS011;54048;51.468;-2.572;2022-08-24T08:40:18;1.40;;;1.00;;
66979;SDS011;54048;51.468;-2.572;2022-08-24T08:43:00;2.08;;;1.08;;
66979;SDS011;54048;51.468;-2.572;2022-08-24T09:09:26;5.28;;;2.97;;
66979;SDS011;54048;51.468;-2.572;2022-08-24T09:12:35;3.17;;;2.80;;
66979;SDS011;54048;51.468;-2.572;2022-08-24T09:20:49;4.53;;;2.90;;
66979;SDS011;54048;51.468;-2.572;2022-08-24T09:29:07;3.50;;;1.52;;
66979;SDS011;54048;51.468;-2.572;2022-08-24T09:31:47;1.40;;;1.30;;
66979;SDS011;54048;51.468;-2.572;2022-08-24T09:36:54;3.15;;;1.25;;
66979;SDS011;54048;51.468;-2.572;2022-08-24T09:39:40;1.42;;;1.00;;
66979;SDS011;54048;51.468;-2.572;2022-08-24T09:42:29;2.28;;;1.10;;
66979;SDS011;54048;51.468;-2.572;2022-08-24T09:53:50;1.30;;;1.20;;
66979;SDS011;54048;51.468;-2.572;2022-08-24T09:59:25;1.30;;;1.00;;
66979;SDS011;54048;51.468;-2.572;2022-08-24T10:04:49;1.48;;;0.95;;
66979;SDS011;54048;51.468;-2.572;2022-08-24T10:07:25;4.40;;;1.45;;
66979;SDS011;54048;51.468;-2.572;2022-08-24T10:10:12;2.35;;;0.90;;
66979;SDS011;54048;51.468;-2.572;2022-08-24T10:16:03;1.90;;;1.20;;
66979;SDS011;54048;51.468;-2.572;2022-08-24T10:24:24;2.70;;;1.45;;
66979;SDS011;54048;51.468;-2.572;2022-08-24T10:29:44;1.10;;;0.90;;
66979;SDS011;54048;51.468;-2.572;2022-08-24T10:32:39;3.13;;;1.10;;
66979;SDS011;54048;51.468;-2.572;2022-08-24T10:35:13;2.33;;;1.25;;
66979;SDS011;54048;51.468;-2.572;2022-08-24T10:46:31;1.38;;;0.82;;
66979;SDS011;54048;51.468;-2.572;2022-08-24T10:54:22;1.10;;;1.00;;
66979;SDS011;54048;51.468;-2.572;2022-08-24T11:04:33;5.60;;;1.60;;
66979;SDS011;54048;51.468;-2.572;2022-08-24T11:07:18;3.20;;;1.40;;
66979;SDS011;54048;51.468;-2.572;2022-08-24T11:09:50;1.73;;;0.75;;
66979;SDS011;54048;51.468;-2.572;2022-08-24T11:12:21;0.90;;;0.90;;
66979;SDS011;54048;51.468;-2.572;2022-08-24T11:14:47;0.60;;;0.60;;
66979;SDS011;54048;51.468;-2.572;2022-08-24T11:17:18;1.65;;;0.80;;
66979;SDS011;54048;51.468;-2.572;2022-08-24T11:19:45;1.25;;;0.98;;
66979;SDS011;54048;51.468;-2.572;2022-08-24T11:22:31;1.58;;;1.00;;
66979;SDS011;54048;51.468;-2.572;2022-08-24T11:27:45;1.00;;;0.80;;
66979;SDS011;54048;51.468;-2.572;2022-08-24T11:32:46;0.77;;;0.70;;
66979;SDS011;54048;51.468;-2.572;2022-08-24T11:35:48;1.48;;;0.70;;
66979;SDS011;54048;51.468;-2.572;2022-08-24T11:38:08;3.70;;;0.95;;
66979;SDS011;54048;51.468;-2.572;2022-08-24T11:40:41;3.25;;;1.27;;
66979;SDS011;54048;51.468;-2.572;2022-08-24T11:43:11;4.85;;;0.80;;
66979;SDS011;54048;51.468;-2.572;2022-08-24T11:48:31;1.13;;;0.60;;
66979;SDS011;54048;51.468;-2.572;2022-08-24T11:53:39;1.10;;;0.73;;
66979;SDS011;54048;51.468;-2.572;2022-08-24T11:58:59;1.27;;;0.90;;
66979;SDS011;54048;51.468;-2.572;2022-08-24T12:07:08;1.33;;;1.10;;
66979;SDS011;54048;51.468;-2.572;2022-08-24T12:15:06;2.35;;;0.80;;
66979;SDS011;54048;51.468;-2.572;2022-08-24T12:17:39;0.73;;;0.60;;
66979;SDS011;54048;51.468;-2.572;2022-08-24T12:22:42;0.52;;;0.52;;
66979;SDS011;54048;51.468;-2.572;2022-08-24T12:25:08;0.70;;;0.55;;
66979;SDS011;54048;51.468;-2.572;2022-08-24T12:27:53;1.80;;;0.60;;
66979;SDS011;54048;51.468;-2.572;2022-08-24T12:30:19;0.65;;;0.65;;
66979;SDS011;54048;51.468;-2.572;2022-08-24T12:32:53;1.30;;;0.95;;
66979;SDS011;54048;51.468;-2.572;2022-08-24T12:35:38;0.75;;;0.75;;
66979;SDS011;54048;51.468;-2.572;2022-08-24T12:38:18;1.33;;;0.88;;
66979;SDS011;54048;51.468;-2.572;2022-08-24T12:40:58;1.08;;;0.77;;
66979;SDS011;54048;51.468;-2.572;2022-08-24T12:45:57;1.30;;;0.90;;
66979;SDS011;54048;51.468;-2.572;2022-08-24T13:01:13;2.47;;;1.40;;
66979;SDS011;54048;51.468;-2.572;2022-08-24T13:03:40;5.57;;;1.58;;
66979;SDS011;54048;51.468;-2.572;2022-08-24T13:06:08;2.05;;;1.20;;
66979;SDS011;54048;51.468;-2.572;2022-08-24T13:08:42;2.08;;;1.10;;
66979;SDS011;54048;51.468;-2.572;2022-08-24T13:11:10;4.10;;;1.20;;
66979;SDS011;54048;51.468;-2.572;2022-08-24T13:13:39;2.92;;;1.30;;
66979;SDS011;54048;51.468;-2.572;2022-08-24T13:21:34;2.17;;;1.23;;
66979;SDS011;54048;51.468;-2.572;2022-08-24T13:26:56;3.03;;;1.77;;
66979;SDS011;54048;51.468;-2.572;2022-08-24T13:29:24;3.30;;;1.98;;
66979;SDS011;54048;51.468;-2.572;2022-08-24T13:31:52;4.45;;;1.60;;
66979;SDS011;54048;51.468;-2.572;2022-08-24T13:42:02;2.70;;;1.80;;
66979;SDS011;54048;51.468;-2.572;2022-08-24T13:50:37;3.05;;;1.60;;
66979;SDS011;54048;51.468;-2.572;2022-08-24T13:56:26;2.53;;;1.80;;
66979;SDS011;54048;51.468;-2.572;2022-08-24T14:02:25;2.40;;;1.77;;
66979;SDS011;54048;51.468;-2.572;2022-08-24T14:05:12;2.38;;;1.63;;
66979;SDS011;54048;51.468;-2.572;2022-08-24T14:20:05;1.75;;;1.20;;
66979;SDS011;54048;51.468;-2.572;2022-08-24T14:22:35;2.88;;;1.30;;
66979;SDS011;54048;51.468;-2.572;2022-08-24T14:25:42;5.65;;;1.40;;
66979;SDS011;54048;51.468;-2.572;2022-08-24T14:34:27;2.33;;;1.60;;
66979;SDS011;54048;51.468;-2.572;2022-08-24T14:36:41;2.65;;;1.50;;
66979;SDS011;54048;51.468;-2.572;2022-08-24T14:50:24;2.95;;;1.27;;
66979;SDS011;54048;51.468;-2.572;2022-08-24T14:55:39;7.95;;;1.88;;
66979;SDS011;54048;51.468;-2.572;2022-08-24T14:58:10;2.55;;;1.40;;
66979;SDS011;54048;51.468;-2.572;2022-08-24T15:00:47;1.75;;;1.15;;
66979;SDS011;54048;51.468;-2.572;2022-08-24T15:03:46;3.22;;;1.40;;
66979;SDS011;54048;51.468;-2.572;2022-08-24T15:06:24;1.33;;;1.20;;
66979;SDS011;54048;51.468;-2.572;2022-08-24T15:11:31;3.75;;;1.67;;
66979;SDS011;54048;51.468;-2.572;2022-08-24T15:14:03;2.08;;;1.52;;
66979;SDS011;54048;51.468;-2.572;2022-08-24T15:16:47;3.58;;;1.50;;
66979;SDS011;54048;51.468;-2.572;2022-08-24T15:21:58;1.77;;;1.63;;
66979;SDS011;54048;51.468;-2.572;2022-08-24T15:24:41;3.95;;;2.00;;
66979;SDS011;54048;51.468;-2.572;2022-08-24T15:30:04;2.45;;;1.20;;
66979;SDS011;54048;51.468;-2.572;2022-08-24T15:32:47;1.25;;;1.05;;
66979;SDS011;54048;51.468;-2.572;2022-08-24T15:37:51;2.78;;;0.80;;
66979;SDS011;54048;51.468;-2.572;2022-08-24T15:40:22;1.55;;;1.20;;
66979;SDS011;54048;51.468;-2.572;2022-08-24T15:42:48;2.25;;;1.05;;
66979;SDS011;54048;51.468;-2.572;2022-08-24T15:45:15;2.55;;;1.20;;
66979;SDS011;54048;51.468;-2.572;2022-08-24T15:47:42;0.95;;;0.60;;
66979;SDS011;54048;51.468;-2.572;2022-08-24T15:52:57;1.15;;;0.68;;
66979;SDS011;54048;51.468;-2.572;2022-08-24T16:03:55;2.08;;;0.77;;
66979;SDS011;54048;51.468;-2.572;2022-08-24T16:06:34;0.82;;;0.80;;
66979;SDS011;54048;51.468;-2.572;2022-08-24T16:14:30;2.60;;;1.27;;
66979;SDS011;54048;51.468;-2.572;2022-08-24T16:17:16;4.03;;;0.70;;
66979;SDS011;54048;51.468;-2.572;2022-08-24T16:20:00;3.00;;;0.68;;
66979;SDS011;54048;51.468;-2.572;2022-08-24T16:22:34;1.40;;;0.90;;
66979;SDS011;54048;51.468;-2.572;2022-08-24T16:25:10;0.80;;;0.80;;
66979;SDS011;54048;51.468;-2.572;2022-08-24T16:30:37;1.40;;;0.85;;
66979;SDS011;54048;51.468;-2.572;2022-08-24T16:35:55;3.10;;;0.90;;
66979;SDS011;54048;51.468;-2.572;2022-08-24T16:38:25;2.22;;;0.95;;
66979;SDS011;54048;51.468;-2.572;2022-08-24T16:40:51;3.22;;;1.50;;
66979;SDS011;54048;51.468;-2.572;2022-08-24T16:43:17;2.72;;;1.40;;
66979;SDS011;54048;51.468;-2.572;2022-08-24T16:45:42;5.47;;;0.80;;
66979;SDS011;54048;51.468;-2.572;2022-08-24T16:48:08;1.00;;;0.80;;
66979;SDS011;54048;51.468;-2.572;2022-08-24T16:50:33;4.13;;;1.00;;
66979;SDS011;54048;51.468;-2.572;2022-08-24T16:52:59;5.53;;;0.90;;
66979;SDS011;54048;51.468;-2.572;2022-08-24T16:55:24;6.03;;;2.03;;
66979;SDS011;54048;51.468;-2.572;2022-08-24T16:57:52;8.85;;;2.10;;
66979;SDS011;54048;51.468;-2.572;2022-08-24T17:00:18;7.05;;;2.40;;
66979;SDS011;54048;51.468;-2.572;2022-08-24T17:02:45;5.75;;;2.10;;
66979;SDS011;54048;51.468;-2.572;2022-08-24T17:05:12;1.92;;;1.50;;
66979;SDS011;54048;51.468;-2.572;2022-08-24T17:07:38;5.63;;;1.75;;
66979;SDS011;54048;51.468;-2.572;2022-08-24T17:10:04;4.55;;;1.50;;
66979;SDS011;54048;51.468;-2.572;2022-08-24T17:12:32;5.75;;;1.60;;
66979;SDS011;54048;51.468;-2.572;2022-08-24T17:15:00;7.50;;;1.70;;
66979;SDS011;54048;51.468;-2.572;2022-08-24T17:17:26;7.10;;;2.08;;
66979;SDS011;54048;51.468;-2.572;2022-08-24T17:19:53;2.15;;;1.20;;
66979;SDS011;54048;51.468;-2.572;2022-08-24T17:22:22;8.77;;;3.20;;
66979;SDS011;54048;51.468;-2.572;2022-08-24T17:24:49;8.20;;;3.63;;
66979;SDS011;54048;51.468;-2.572;2022-08-24T17:27:14;14.63;;;4.25;;
66979;SDS011;54048;51.468;-2.572;2022-08-24T17:29:41;5.40;;;2.30;;
66979;SDS011;54048;51.468;-2.572;2022-08-24T17:32:08;14.70;;;3.10;;
66979;SDS011;54048;51.468;-2.572;2022-08-24T17:34:33;6.22;;;2.38;;
66979;SDS011;54048;51.468;-2.572;2022-08-24T17:36:59;19.10;;;5.78;;
66979;SDS011;54048;51.468;-2.572;2022-08-24T17:39:25;7.13;;;3.72;;
66979;SDS011;54048;51.468;-2.572;2022-08-24T17:41:51;5.90;;;2.95;;
66979;SDS011;54048;51.468;-2.572;2022-08-24T17:44:19;4.97;;;1.60;;
66979;SDS011;54048;51.468;-2.572;2022-08-24T17:46:49;3.08;;;1.83;;
66979;SDS011;54048;51.468;-2.572;2022-08-24T17:49:16;3.85;;;1.60;;
66979;SDS011;54048;51.468;-2.572;2022-08-24T17:51:42;3.03;;;1.50;;
66979;SDS011;54048;51.468;-2.572;2022-08-24T17:54:07;3.70;;;1.23;;
66979;SDS011;54048;51.468;-2.572;2022-08-24T17:56:33;3.10;;;2.15;;
66979;SDS011;54048;51.468;-2.572;2022-08-24T17:59:02;10.95;;;2.67;;
66979;SDS011;54048;51.468;-2.572;2022-08-24T18:04:16;4.75;;;2.15;;
66979;SDS011;54048;51.468;-2.572;2022-08-24T18:06:43;3.10;;;1.30;;
66979;SDS011;54048;51.468;-2.572;2022-08-24T18:09:10;3.33;;;1.60;;
66979;SDS011;54048;51.468;-2.572;2022-08-24T18:11:40;2.92;;;1.60;;
66979;SDS011;54048;51.468;-2.572;2022-08-24T18:14:06;3.35;;;1.95;;
66979;SDS011;54048;51.468;-2.572;2022-08-24T18:16:31;1.70;;;1.35;;
66979;SDS011;54048;51.468;-2.572;2022-08-24T18:18:56;1.20;;;1.10;;
66979;SDS011;54048;51.468;-2.572;2022-08-24T18:21:22;6.20;;;2.03;;
66979;SDS011;54048;51.468;-2.572;2022-08-24T18:23:48;8.02;;;2.92;;
66979;SDS011;54048;51.468;-2.572;2022-08-24T18:26:16;8.93;;;3.80;;
66979;SDS011;54048;51.468;-2.572;2022-08-24T18:28:45;4.85;;;2.60;;
66979;SDS011;54048;51.468;-2.572;2022-08-24T18:31:10;2.30;;;1.80;;
66979;SDS011;54048;51.468;-2.572;2022-08-24T18:33:36;3.15;;;1.77;;